createdAt,value
2022-08-17T00:00:52.113Z,17.90
2022-08-17T00:03:24.828Z,17.80
2022-08-17T00:05:58.017Z,17.80
2022-08-17T00:08:31.510Z,17.70
2022-08-17T00:11:00.920Z,17.70
2022-08-17T00:13:35.924Z,17.70
2022-08-17T00:16:08.881Z,17.60
2022-08-17T00:19:06.275Z,17.60
2022-08-17T00:21:26.899Z,17.50
2022-08-17T00:24:17.143Z,17.50
2022-08-17T00:26:45.561Z,17.50
2022-08-17T00:29:17.897Z,17.50
2022-08-17T00:31:48.754Z,17.50
2022-08-17T00:34:18.106Z,17.40
2022-08-17T00:36:46.341Z,17.40
2022-08-17T00:39:15.978Z,17.40
2022-08-17T00:41:44.650Z,17.40
2022-08-17T00:44:13.143Z,17.40
2022-08-17T00:46:43.832Z,17.30
2022-08-17T00:49:15.216Z,17.30
2022-08-17T00:51:49.537Z,17.30
2022-08-17T00:54:27.015Z,17.20
2022-08-17T00:57:00.033Z,17.20
2022-08-17T00:59:33.810Z,17.20
2022-08-17T01:02:02.901Z,17.10
2022-08-17T01:04:33.364Z,17.10
2022-08-17T01:07:03.737Z,17.00
2022-08-17T01:09:34.152Z,17.00
2022-08-17T01:12:02.427Z,17.00
2022-08-17T01:14:30.631Z,17.00
2022-08-17T01:17:00.242Z,16.90
2022-08-17T01:19:32.444Z,16.90
2022-08-17T01:22:08.361Z,16.90
2022-08-17T01:24:43.500Z,16.90
2022-08-17T01:27:13.703Z,16.90
2022-08-17T01:29:47.022Z,16.90
2022-08-17T01:32:16.550Z,16.90
2022-08-17T01:34:50.551Z,16.80
2022-08-17T01:37:22.223Z,16.80
2022-08-17T01:39:57.477Z,16.80
2022-08-17T01:42:39.320Z,16.80
2022-08-17T01:45:12.881Z,16.80
2022-08-17T01:47:41.724Z,16.80
2022-08-17T01:50:15.804Z,16.70
2022-08-17T01:52:45.176Z,16.70
2022-08-17T01:55:17.683Z,16.70
2022-08-17T01:57:46.661Z,16.60
2022-08-17T02:00:16.203Z,16.60
2022-08-17T02:02:45.942Z,16.60
2022-08-17T02:05:15.375Z,16.60
2022-08-17T02:07:59.999Z,16.50
2022-08-17T02:10:33.853Z,16.50
2022-08-17T02:13:03.532Z,16.50
2022-08-17T02:15:33.406Z,16.50
2022-08-17T02:18:02.480Z,16.40
2022-08-17T02:20:36.444Z,16.40
2022-08-17T02:23:12.181Z,16.40
2022-08-17T02:25:44.958Z,16.40
2022-08-17T02:28:13.173Z,16.40
2022-08-17T02:30:59.406Z,16.40
2022-08-17T02:33:41.865Z,16.40
2022-08-17T02:36:14.026Z,16.30
2022-08-17T02:38:43.449Z,16.30
2022-08-17T02:41:13.416Z,16.30
2022-08-17T02:43:41.867Z,16.30
2022-08-17T02:46:12.566Z,16.20
2022-08-17T02:48:40.936Z,16.20
2022-08-17T02:51:09.232Z,16.10
2022-08-17T02:53:37.640Z,16.10
2022-08-17T02:56:06.273Z,16.10
2022-08-17T02:58:36.307Z,16.10
2022-08-17T03:01:06.472Z,16.10
2022-08-17T03:03:35.407Z,16.10
2022-08-17T03:06:04.642Z,16.10
2022-08-17T03:08:33.067Z,16.10
2022-08-17T03:11:01.304Z,16.10
2022-08-17T03:13:30.711Z,16.10
2022-08-17T03:16:00.681Z,16.10
2022-08-17T03:18:29.042Z,16.00
2022-08-17T03:21:00.964Z,16.00
2022-08-17T03:23:30.410Z,15.90
2022-08-17T03:26:00.427Z,16.00
2022-08-17T03:28:29.307Z,16.00
2022-08-17T03:30:58.864Z,15.90
2022-08-17T03:33:27.410Z,15.90
2022-08-17T03:35:55.731Z,15.90
2022-08-17T03:38:24.156Z,15.90
2022-08-17T03:40:58.517Z,15.90
2022-08-17T03:43:30.858Z,15.90
2022-08-17T03:46:28.401Z,15.90
2022-08-17T03:49:22.449Z,15.90
2022-08-17T03:52:08.545Z,15.90
2022-08-17T03:54:54.067Z,15.80
2022-08-17T03:57:22.477Z,15.80
2022-08-17T03:59:51.043Z,15.90
2022-08-17T04:02:25.101Z,15.80
2022-08-17T04:04:54.164Z,15.80
2022-08-17T04:07:25.206Z,15.80
2022-08-17T04:09:53.575Z,15.80
2022-08-17T04:12:24.070Z,15.70
2022-08-17T04:14:54.778Z,15.70
2022-08-17T04:17:28.976Z,15.70
2022-08-17T04:19:57.797Z,15.70
2022-08-17T04:22:30.424Z,15.70
2022-08-17T04:25:08.964Z,15.70
2022-08-17T04:27:37.676Z,15.60
2022-08-17T04:30:08.381Z,15.60
2022-08-17T04:33:00.830Z,15.50
2022-08-17T04:35:38.026Z,15.50
2022-08-17T04:38:07.056Z,15.50
2022-08-17T04:40:52.778Z,15.50
2022-08-17T04:43:23.363Z,15.50
2022-08-17T04:45:57.054Z,15.50
2022-08-17T04:48:35.822Z,15.50
2022-08-17T04:51:09.736Z,15.50
2022-08-17T04:53:40.028Z,15.50
2022-08-17T04:56:11.809Z,15.60
2022-08-17T04:58:46.332Z,15.60
2022-08-17T05:01:15.219Z,15.70
2022-08-17T05:03:45.296Z,15.70
2022-08-17T05:06:13.682Z,15.70
2022-08-17T05:08:42.488Z,15.80
2022-08-17T05:11:10.874Z,15.90
2022-08-17T05:13:39.333Z,15.90
2022-08-17T05:16:09.065Z,16.00
2022-08-17T05:18:38.747Z,16.10
2022-08-17T05:21:09.506Z,16.20
2022-08-17T05:23:43.151Z,16.40
2022-08-17T05:26:24.758Z,16.50
2022-08-17T05:28:59.709Z,16.60
2022-08-17T05:31:32.049Z,16.80
2022-08-17T05:34:00.300Z,16.90
2022-08-17T05:36:43.021Z,17.00
2022-08-17T05:39:16.265Z,17.10
2022-08-17T05:41:48.086Z,17.20
2022-08-17T05:44:17.418Z,17.30
2022-08-17T05:46:51.459Z,17.40
2022-08-17T05:49:27.040Z,17.50
2022-08-17T05:52:22.425Z,17.60
2022-08-17T05:55:11.447Z,17.80
2022-08-17T05:58:01.196Z,17.90
2022-08-17T06:00:37.283Z,18.10
2022-08-17T06:03:40.175Z,18.20
2022-08-17T06:06:31.156Z,18.50
2022-08-17T06:09:26.533Z,18.60
2022-08-17T06:12:02.069Z,18.80
2022-08-17T06:14:55.390Z,19.00
2022-08-17T06:17:27.049Z,19.20
2022-08-17T06:19:59.703Z,19.40
2022-08-17T06:22:34.221Z,19.70
2022-08-17T06:25:10.272Z,19.90
2022-08-17T06:27:43.866Z,20.10
2022-08-17T06:30:15.870Z,20.30
2022-08-17T06:32:47.573Z,20.40
2022-08-17T06:35:21.927Z,20.50
2022-08-17T06:38:09.713Z,20.60
2022-08-17T06:41:12.889Z,20.90
2022-08-17T06:44:01.745Z,21.10
2022-08-17T06:46:36.711Z,21.40
2022-08-17T06:49:17.857Z,21.60
2022-08-17T06:51:53.899Z,21.80
2022-08-17T06:54:34.977Z,22.00
2022-08-17T06:57:16.006Z,22.10
2022-08-17T06:59:55.502Z,22.30
2022-08-17T07:02:52.211Z,22.50
2022-08-17T07:05:26.204Z,22.70
2022-08-17T07:08:05.148Z,22.90
2022-08-17T07:10:40.794Z,23.10
2022-08-17T07:13:33.088Z,23.30
2022-08-17T07:16:18.372Z,23.50
2022-08-17T07:18:48.188Z,23.70
2022-08-17T07:21:38.453Z,23.90
2022-08-17T07:24:31.729Z,24.10
2022-08-17T07:27:14.926Z,24.30
2022-08-17T07:29:50.663Z,24.60
2022-08-17T07:32:24.719Z,24.80
2022-08-17T07:35:15.440Z,25.00
2022-08-17T07:37:53.266Z,25.40
2022-08-17T07:40:28.091Z,25.70
2022-08-17T07:43:15.629Z,26.00
2022-08-17T07:46:43.684Z,26.10
2022-08-17T07:49:27.364Z,26.30
2022-08-17T07:52:23.954Z,26.60
2022-08-17T07:54:54.609Z,27.00
2022-08-17T07:57:35.394Z,27.30
2022-08-17T08:00:31.702Z,27.60
2022-08-17T08:03:27.201Z,28.00
2022-08-17T08:06:00.224Z,28.20
2022-08-17T08:08:36.616Z,28.60
2022-08-17T08:11:10.034Z,29.00
2022-08-17T08:13:42.525Z,29.40
2022-08-17T08:16:29.162Z,29.80
2022-08-17T08:19:02.209Z,30.10
2022-08-17T08:21:44.708Z,30.20
2022-08-17T08:24:54.426Z,30.30
2022-08-17T08:27:37.141Z,30.20
2022-08-17T08:30:10.691Z,30.20
2022-08-17T08:33:08.905Z,29.90
2022-08-17T08:35:47.730Z,29.70
2022-08-17T08:38:27.507Z,29.50
2022-08-17T08:41:22.768Z,29.20
2022-08-17T08:44:04.256Z,28.80
2022-08-17T08:46:44.521Z,28.60
2022-08-17T08:50:02.833Z,28.30
2022-08-17T08:52:44.645Z,28.20
2022-08-17T08:55:23.475Z,28.10
2022-08-17T08:57:59.870Z,28.00
2022-08-17T09:00:30.463Z,28.00
2022-08-17T09:03:36.727Z,27.90
2022-08-17T09:06:33.615Z,27.90
2022-08-17T09:09:25.300Z,27.90
2022-08-17T09:12:04.084Z,27.90
2022-08-17T09:14:46.645Z,27.80
2022-08-17T09:17:20.838Z,27.80
2022-08-17T09:19:55.471Z,27.60
2022-08-17T09:22:33.813Z,27.60
2022-08-17T09:25:11.226Z,27.60
2022-08-17T09:27:57.442Z,27.40
2022-08-17T09:30:44.231Z,27.40
2022-08-17T09:33:18.816Z,27.30
2022-08-17T09:35:53.798Z,27.30
2022-08-17T09:38:32.517Z,27.20
2022-08-17T09:41:13.507Z,27.20
2022-08-17T09:43:50.099Z,27.20
2022-08-17T09:46:23.428Z,27.20
2022-08-17T09:48:59.052Z,27.10
2022-08-17T09:51:34.562Z,27.10
2022-08-17T09:54:34.843Z,27.10
2022-08-17T09:57:28.702Z,27.00
2022-08-17T10:00:16.546Z,27.00
2022-08-17T10:03:16.199Z,27.10
2022-08-17T10:05:56.351Z,27.20
2022-08-17T10:08:36.250Z,27.20
2022-08-17T10:11:18.538Z,27.20
2022-08-17T10:13:59.644Z,27.20
2022-08-17T10:16:38.358Z,27.20
2022-08-17T10:19:15.782Z,27.20
2022-08-17T10:22:32.974Z,27.30
2022-08-17T10:25:21.881Z,27.30
2022-08-17T10:27:56.739Z,27.40
2022-08-17T10:30:29.706Z,27.50
2022-08-17T10:33:01.162Z,27.60
2022-08-17T10:35:40.774Z,27.60
2022-08-17T10:38:42.625Z,27.60
2022-08-17T10:41:25.687Z,27.60
2022-08-17T10:44:40.321Z,27.70
2022-08-17T10:47:07.524Z,27.70
2022-08-17T10:49:38.427Z,27.70
2022-08-17T10:52:50.001Z,27.70
2022-08-17T10:55:20.675Z,27.60
2022-08-17T10:57:51.517Z,27.50
2022-08-17T11:01:05.937Z,27.40
2022-08-17T11:03:34.524Z,27.50
2022-08-17T11:06:15.476Z,27.50
2022-08-17T11:09:19.915Z,27.60
2022-08-17T11:12:21.410Z,27.70
2022-08-17T11:15:09.881Z,27.60
2022-08-17T11:18:12.155Z,27.60
2022-08-17T11:21:52.625Z,27.60
2022-08-17T11:24:31.497Z,27.50
2022-08-17T11:27:12.297Z,27.30
2022-08-17T11:29:59.521Z,27.30
2022-08-17T11:32:48.687Z,27.20
2022-08-17T11:35:40.493Z,27.20
2022-08-17T11:38:21.168Z,27.10
2022-08-17T11:41:14.512Z,27.10
2022-08-17T11:44:19.294Z,27.00
2022-08-17T11:47:28.425Z,26.90
2022-08-17T11:50:48.889Z,26.80
2022-08-17T11:57:02.176Z,26.70
2022-08-17T12:00:00.661Z,26.60
2022-08-17T12:02:48.089Z,26.50
2022-08-17T12:05:33.039Z,26.40
2022-08-17T12:08:17.650Z,26.50
2022-08-17T12:11:01.392Z,27.10
2022-08-17T12:13:38.656Z,27.30
2022-08-17T12:16:09.911Z,27.90
2022-08-17T12:18:42.024Z,28.00
2022-08-17T12:21:25.505Z,28.00
2022-08-17T12:24:06.463Z,28.20
2022-08-17T12:26:37.412Z,28.70
2022-08-17T12:29:18.395Z,29.60
2022-08-17T12:32:03.650Z,29.90
2022-08-17T12:34:38.191Z,30.00
2022-08-17T12:37:15.201Z,29.80
2022-08-17T12:39:54.693Z,29.70
2022-08-17T12:42:27.206Z,29.40
2022-08-17T12:44:57.282Z,29.30
2022-08-17T12:47:25.879Z,29.20
2022-08-17T12:50:29.758Z,29.20
2022-08-17T12:53:01.932Z,29.30
2022-08-17T12:55:37.210Z,29.30
2022-08-17T12:58:08.908Z,29.20
2022-08-17T13:00:47.464Z,29.20
2022-08-17T13:03:20.172Z,29.40
2022-08-17T13:05:59.555Z,29.60
2022-08-17T13:08:36.071Z,29.70
2022-08-17T13:11:09.880Z,29.80
2022-08-17T13:13:41.092Z,30.20
2022-08-17T13:16:20.762Z,30.50
2022-08-17T13:18:51.744Z,30.50
2022-08-17T13:21:30.282Z,30.40
2022-08-17T13:24:02.388Z,30.40
2022-08-17T13:26:34.760Z,30.50
2022-08-17T13:29:07.622Z,30.60
2022-08-17T13:31:52.759Z,30.50
2022-08-17T13:35:11.814Z,30.50
2022-08-17T13:37:34.076Z,30.70
2022-08-17T13:40:29.048Z,30.70
2022-08-17T13:42:58.492Z,30.70
2022-08-17T13:45:53.321Z,31.20
2022-08-17T13:48:27.532Z,31.80
2022-08-17T13:51:26.326Z,32.90
2022-08-17T13:54:28.282Z,33.80
2022-08-17T13:57:08.460Z,34.40
2022-08-17T13:59:54.601Z,35.20
2022-08-17T14:02:28.335Z,35.60
2022-08-17T14:05:00.487Z,35.40
2022-08-17T14:07:34.711Z,35.20
2022-08-17T14:10:11.367Z,35.20
2022-08-17T14:12:43.387Z,35.60
2022-08-17T14:15:14.650Z,36.10
2022-08-17T14:17:43.200Z,36.20
2022-08-17T14:20:14.210Z,36.10
2022-08-17T14:22:48.231Z,36.00
2022-08-17T14:25:21.004Z,35.90
2022-08-17T14:27:53.113Z,35.80
2022-08-17T14:30:26.981Z,35.60
2022-08-17T14:32:59.339Z,35.60
2022-08-17T14:35:30.613Z,35.60
2022-08-17T14:37:58.968Z,35.60
2022-08-17T14:40:28.070Z,35.70
2022-08-17T14:42:57.876Z,36.10
2022-08-17T14:45:32.788Z,36.20
2022-08-17T14:48:05.511Z,36.20
2022-08-17T14:50:38.211Z,35.90
2022-08-17T14:53:09.275Z,35.80
2022-08-17T14:55:39.954Z,35.60
2022-08-17T14:58:09.246Z,35.20
2022-08-17T15:00:38.134Z,35.10
2022-08-17T15:03:06.686Z,35.00
2022-08-17T15:05:39.616Z,34.80
2022-08-17T15:08:08.337Z,34.40
2022-08-17T15:10:37.277Z,34.20
2022-08-17T15:13:05.914Z,34.10
2022-08-17T15:15:34.545Z,34.00
2022-08-17T15:18:03.248Z,33.90
2022-08-17T15:20:31.917Z,33.70
2022-08-17T15:23:01.601Z,33.40
2022-08-17T15:25:33.267Z,33.20
2022-08-17T15:28:02.610Z,33.00
2022-08-17T15:30:32.480Z,32.80
2022-08-17T15:33:02.081Z,32.60
2022-08-17T15:35:33.786Z,32.60
2022-08-17T15:38:11.539Z,32.50
2022-08-17T15:40:46.229Z,32.50
2022-08-17T15:43:17.248Z,32.40
2022-08-17T15:45:58.689Z,32.40
2022-08-17T15:48:41.386Z,32.20
2022-08-17T15:51:12.793Z,32.20
2022-08-17T15:53:45.175Z,32.20
2022-08-17T15:56:15.111Z,32.10
2022-08-17T15:58:46.519Z,32.10
2022-08-17T16:01:31.342Z,32.00
2022-08-17T16:04:14.925Z,31.90
2022-08-17T16:06:54.875Z,31.80
2022-08-17T16:09:24.449Z,31.50
2022-08-17T16:11:55.608Z,31.30
2022-08-17T16:14:33.794Z,31.00
2022-08-17T16:17:03.713Z,30.90
2022-08-17T16:19:32.460Z,30.80
2022-08-17T16:22:01.215Z,30.60
2022-08-17T16:24:31.803Z,30.50
2022-08-17T16:27:00.303Z,30.30
2022-08-17T16:29:29.450Z,30.20
2022-08-17T16:31:58.623Z,30.10
2022-08-17T16:34:26.973Z,30.00
2022-08-17T16:36:56.440Z,29.80
2022-08-17T16:39:27.602Z,29.60
2022-08-17T16:41:57.997Z,29.50
2022-08-17T16:44:31.625Z,29.40
2022-08-17T16:47:00.910Z,29.30
2022-08-17T16:49:37.344Z,29.20
2022-08-17T16:52:11.310Z,29.10
2022-08-17T16:54:43.458Z,29.00
2022-08-17T16:57:16.025Z,28.90
2022-08-17T16:59:48.004Z,28.90
2022-08-17T17:02:21.068Z,28.80
2022-08-17T17:04:57.697Z,28.80
2022-08-17T17:07:50.943Z,28.70
2022-08-17T17:10:23.622Z,28.70
2022-08-17T17:13:02.441Z,28.50
2022-08-17T17:15:51.627Z,28.40
2022-08-17T17:18:24.218Z,28.30
2022-08-17T17:20:57.680Z,28.20
2022-08-17T17:23:39.339Z,28.00
2022-08-17T17:26:36.142Z,27.90
2022-08-17T17:29:22.363Z,27.80
2022-08-17T17:32:01.029Z,27.70
2022-08-17T17:34:34.555Z,27.60
2022-08-17T17:37:09.098Z,27.50
2022-08-17T17:39:44.139Z,27.40
2022-08-17T17:42:20.052Z,27.30
2022-08-17T17:44:58.451Z,27.20
2022-08-17T17:47:27.602Z,27.20
2022-08-17T17:49:55.913Z,27.10
2022-08-17T17:52:30.584Z,27.00
2022-08-17T17:55:13.021Z,26.90
2022-08-17T17:58:02.372Z,26.80
2022-08-17T18:00:41.694Z,26.70
2022-08-17T18:03:26.433Z,26.60
2022-08-17T18:06:27.065Z,26.60
2022-08-17T18:09:19.221Z,26.50
2022-08-17T18:12:08.619Z,26.40
2022-08-17T18:15:31.348Z,26.30
2022-08-17T18:18:31.052Z,26.20
2022-08-17T18:21:06.482Z,26.10
2022-08-17T18:23:35.286Z,26.00
2022-08-17T18:26:04.023Z,25.90
2022-08-17T18:28:37.969Z,25.80
2022-08-17T18:31:11.307Z,25.70
2022-08-17T18:33:43.527Z,25.60
2022-08-17T18:36:13.127Z,25.50
2022-08-17T18:38:44.077Z,25.40
2022-08-17T18:41:23.599Z,25.30
2022-08-17T18:44:06.078Z,25.20
2022-08-17T18:46:37.722Z,25.10
2022-08-17T18:49:26.949Z,25.00
2022-08-17T18:52:14.352Z,25.00
2022-08-17T18:55:02.138Z,24.90
2022-08-17T18:57:35.326Z,24.80
2022-08-17T19:00:15.380Z,24.70
2022-08-17T19:02:53.460Z,24.60
2022-08-17T19:05:35.294Z,24.50
2022-08-17T19:08:22.451Z,24.40
2022-08-17T19:10:55.448Z,24.30
2022-08-17T19:13:30.360Z,24.20
2022-08-17T19:16:13.102Z,24.20
2022-08-17T19:18:50.120Z,24.10
2022-08-17T19:21:24.433Z,24.10
2022-08-17T19:23:59.640Z,24.00
2022-08-17T19:26:50.656Z,24.00
2022-08-17T19:29:27.819Z,23.90
2022-08-17T19:32:00.636Z,23.80
2022-08-17T19:34:34.644Z,23.70
2022-08-17T19:37:13.863Z,23.70
2022-08-17T19:40:04.064Z,23.70
2022-08-17T19:42:47.357Z,23.60
2022-08-17T19:45:32.771Z,23.60
2022-08-17T19:48:17.039Z,23.50
2022-08-17T19:50:55.439Z,23.50
2022-08-17T19:54:01.468Z,23.40
2022-08-17T19:56:37.380Z,23.40
2022-08-17T19:59:15.296Z,23.30
2022-08-17T20:01:50.229Z,23.30
2022-08-17T20:04:33.268Z,23.30
2022-08-17T20:07:07.967Z,23.20
2022-08-17T20:09:41.734Z,23.20
2022-08-17T20:12:15.411Z,23.10
2022-08-17T20:14:53.267Z,23.10
2022-08-17T20:17:23.339Z,23.00
2022-08-17T20:19:58.645Z,23.00
2022-08-17T20:22:36.804Z,22.90
2022-08-17T20:25:30.602Z,22.80
2022-08-17T20:28:06.730Z,22.70
2022-08-17T20:30:39.645Z,22.70
2022-08-17T20:33:23.906Z,22.60
2022-08-17T20:36:13.364Z,22.50
2022-08-17T20:38:49.011Z,22.50
2022-08-17T20:41:22.367Z,22.40
2022-08-17T20:44:04.132Z,22.30
2022-08-17T20:46:58.639Z,22.20
2022-08-17T20:49:51.647Z,22.10
2022-08-17T20:52:53.025Z,22.00
2022-08-17T20:55:53.164Z,22.00
2022-08-17T20:58:48.203Z,21.90
2022-08-17T21:01:36.624Z,21.90
2022-08-17T21:04:10.428Z,21.80
2022-08-17T21:07:28.983Z,21.80
2022-08-17T21:10:13.848Z,21.80
2022-08-17T21:12:49.542Z,21.70
2022-08-17T21:15:31.019Z,21.70
2022-08-17T21:18:11.909Z,21.70
2022-08-17T21:20:48.810Z,21.70
2022-08-17T21:23:56.691Z,21.60
2022-08-17T21:26:33.176Z,21.60
2022-08-17T21:29:30.144Z,21.50
2022-08-17T21:32:25.158Z,21.50
2022-08-17T21:35:31.116Z,21.40
2022-08-17T21:38:05.014Z,21.40
2022-08-17T21:40:35.361Z,21.40
2022-08-17T21:43:23.430Z,21.40
2022-08-17T21:46:24.478Z,21.40
2022-08-17T21:48:57.304Z,21.40
2022-08-17T21:51:29.299Z,21.40
2022-08-17T21:54:00.893Z,21.40
2022-08-17T21:56:34.264Z,21.50
2022-08-17T21:59:05.725Z,21.50
2022-08-17T22:01:36.736Z,21.50
2022-08-17T22:04:19.676Z,21.50
2022-08-17T22:06:57.321Z,21.50
2022-08-17T22:09:31.970Z,21.50
2022-08-17T22:12:07.331Z,21.50
2022-08-17T22:14:52.180Z,21.60
2022-08-17T22:17:25.879Z,21.60
2022-08-17T22:19:57.384Z,21.60
2022-08-17T22:22:57.912Z,21.60
2022-08-17T22:25:28.470Z,21.70
2022-08-17T22:28:01.556Z,21.70
2022-08-17T22:30:36.592Z,21.80
2022-08-17T22:33:37.986Z,21.80
2022-08-17T22:36:26.620Z,21.90
2022-08-17T22:38:59.740Z,22.10
2022-08-17T22:41:54.301Z,22.20
2022-08-17T22:44:29.582Z,22.30
2022-08-17T22:47:06.635Z,22.30
2022-08-17T22:49:54.077Z,22.30
2022-08-17T22:52:34.408Z,22.30
2022-08-17T22:55:26.126Z,22.30
2022-08-17T22:58:11.850Z,22.20
2022-08-17T23:00:45.056Z,22.20
2022-08-17T23:03:19.597Z,22.10
2022-08-17T23:06:04.446Z,22.10
2022-08-17T23:08:35.660Z,22.00
2022-08-17T23:11:04.111Z,21.90
2022-08-17T23:13:33.390Z,21.80
2022-08-17T23:16:03.187Z,21.70
2022-08-17T23:18:31.440Z,21.60
2022-08-17T23:21:00.740Z,21.50
2022-08-17T23:23:31.431Z,21.40
2022-08-17T23:25:59.670Z,21.30
2022-08-17T23:28:28.469Z,21.20
2022-08-17T23:30:56.678Z,21.20
2022-08-17T23:33:31.109Z,21.10
2022-08-17T23:35:59.533Z,21.00
2022-08-17T23:38:29.065Z,21.00
2022-08-17T23:41:00.881Z,20.90
2022-08-17T23:43:31.374Z,20.80
2022-08-17T23:46:03.683Z,20.70
2022-08-17T23:48:35.640Z,20.60
2022-08-17T23:51:09.719Z,20.50
2022-08-17T23:53:42.048Z,20.40
2022-08-17T23:56:11.665Z,20.30
2022-08-17T23:58:44.698Z,20.30
